sensor_id;sensor_type;location;lat;lon;timestamp;P1;durP1;ratioP1;P2;durP2;ratioP2
32705;SDS011;19094;50.972;3.538;2023-07-13T00:02:15;9.93;;;2.03;;
32705;SDS011;19094;50.972;3.538;2023-07-13T00:04:40;15.80;;;2.65;;
32705;SDS011;19094;50.972;3.538;2023-07-13T00:07:07;14.27;;;2.65;;
32705;SDS011;19094;50.972;3.538;2023-07-13T00:09:33;7.75;;;2.03;;
32705;SDS011;19094;50.972;3.538;2023-07-13T00:11:59;10.63;;;2.58;;
32705;SDS011;19094;50.972;3.538;2023-07-13T00:14:25;14.77;;;2.47;;
32705;SDS011;19094;50.972;3.538;2023-07-13T00:16:52;12.32;;;2.67;;
32705;SDS011;19094;50.972;3.538;2023-07-13T00:19:18;14.27;;;2.40;;
32705;SDS011;19094;50.972;3.538;2023-07-13T00:21:44;11.40;;;2.83;;
32705;SDS011;19094;50.972;3.538;2023-07-13T00:24:11;14.32;;;3.03;;
32705;SDS011;19094;50.972;3.538;2023-07-13T00:26:39;18.75;;;4.43;;
32705;SDS011;19094;50.972;3.538;2023-07-13T00:29:05;12.25;;;2.60;;
32705;SDS011;19094;50.972;3.538;2023-07-13T00:31:34;11.32;;;3.03;;
32705;SDS011;19094;50.972;3.538;2023-07-13T00:34:00;14.95;;;3.00;;
32705;SDS011;19094;50.972;3.538;2023-07-13T00:36:26;15.32;;;3.13;;
32705;SDS011;19094;50.972;3.538;2023-07-13T00:38:52;22.85;;;3.63;;
32705;SDS011;19094;50.972;3.538;2023-07-13T00:41:17;12.35;;;2.67;;
32705;SDS011;19094;50.972;3.538;2023-07-13T00:43:43;13.10;;;3.55;;
32705;SDS011;19094;50.972;3.538;2023-07-13T00:46:14;15.90;;;4.03;;
32705;SDS011;19094;50.972;3.538;2023-07-13T00:48:42;15.73;;;3.35;;
32705;SDS011;19094;50.972;3.538;2023-07-13T00:51:10;22.88;;;3.88;;
32705;SDS011;19094;50.972;3.538;2023-07-13T00:53:36;17.65;;;3.53;;
32705;SDS011;19094;50.972;3.538;2023-07-13T00:56:02;13.35;;;2.85;;
32705;SDS011;19094;50.972;3.538;2023-07-13T00:58:28;11.85;;;3.10;;
32705;SDS011;19094;50.972;3.538;2023-07-13T01:00:54;12.20;;;2.90;;
32705;SDS011;19094;50.972;3.538;2023-07-13T01:03:20;18.15;;;3.45;;
32705;SDS011;19094;50.972;3.538;2023-07-13T01:05:47;20.98;;;3.65;;
32705;SDS011;19094;50.972;3.538;2023-07-13T01:08:14;14.75;;;3.28;;
32705;SDS011;19094;50.972;3.538;2023-07-13T01:10:40;11.80;;;2.80;;
32705;SDS011;19094;50.972;3.538;2023-07-13T01:13:07;14.73;;;2.78;;
32705;SDS011;19094;50.972;3.538;2023-07-13T01:18:09;12.55;;;2.65;;
32705;SDS011;19094;50.972;3.538;2023-07-13T01:20:41;15.18;;;2.72;;
32705;SDS011;19094;50.972;3.538;2023-07-13T01:23:15;12.63;;;2.90;;
32705;SDS011;19094;50.972;3.538;2023-07-13T01:25:40;15.93;;;3.10;;
32705;SDS011;19094;50.972;3.538;2023-07-13T01:28:06;19.52;;;3.58;;
32705;SDS011;19094;50.972;3.538;2023-07-13T01:30:36;18.17;;;3.47;;
32705;SDS011;19094;50.972;3.538;2023-07-13T01:33:04;10.13;;;2.80;;
32705;SDS011;19094;50.972;3.538;2023-07-13T01:35:32;13.75;;;3.15;;
32705;SDS011;19094;50.972;3.538;2023-07-13T01:37:58;21.48;;;3.85;;
32705;SDS011;19094;50.972;3.538;2023-07-13T01:40:26;13.82;;;2.85;;
32705;SDS011;19094;50.972;3.538;2023-07-13T01:42:51;18.38;;;3.00;;
32705;SDS011;19094;50.972;3.538;2023-07-13T01:45:17;22.60;;;3.88;;
32705;SDS011;19094;50.972;3.538;2023-07-13T01:47:43;22.33;;;3.75;;
32705;SDS011;19094;50.972;3.538;2023-07-13T01:50:09;18.33;;;3.70;;
32705;SDS011;19094;50.972;3.538;2023-07-13T01:52:35;11.45;;;3.10;;
32705;SDS011;19094;50.972;3.538;2023-07-13T01:55:00;15.02;;;3.10;;
32705;SDS011;19094;50.972;3.538;2023-07-13T01:57:27;18.67;;;3.97;;
32705;SDS011;19094;50.972;3.538;2023-07-13T01:59:53;17.55;;;3.40;;
32705;SDS011;19094;50.972;3.538;2023-07-13T02:02:18;18.02;;;3.28;;
32705;SDS011;19094;50.972;3.538;2023-07-13T02:04:44;15.52;;;3.50;;
32705;SDS011;19094;50.972;3.538;2023-07-13T02:07:10;20.95;;;3.50;;
32705;SDS011;19094;50.972;3.538;2023-07-13T02:09:36;16.95;;;3.85;;
32705;SDS011;19094;50.972;3.538;2023-07-13T02:12:01;17.02;;;3.90;;
32705;SDS011;19094;50.972;3.538;2023-07-13T02:14:27;14.07;;;3.13;;
32705;SDS011;19094;50.972;3.538;2023-07-13T02:16:54;16.60;;;3.63;;
32705;SDS011;19094;50.972;3.538;2023-07-13T02:19:19;16.25;;;3.60;;
32705;SDS011;19094;50.972;3.538;2023-07-13T02:21:45;15.48;;;3.58;;
32705;SDS011;19094;50.972;3.538;2023-07-13T02:24:11;16.50;;;3.20;;
32705;SDS011;19094;50.972;3.538;2023-07-13T02:26:42;22.30;;;4.28;;
32705;SDS011;19094;50.972;3.538;2023-07-13T02:29:11;27.50;;;4.65;;
32705;SDS011;19094;50.972;3.538;2023-07-13T02:31:36;17.20;;;3.90;;
32705;SDS011;19094;50.972;3.538;2023-07-13T02:34:03;18.33;;;3.80;;
32705;SDS011;19094;50.972;3.538;2023-07-13T02:36:29;16.23;;;3.95;;
32705;SDS011;19094;50.972;3.538;2023-07-13T02:38:55;20.38;;;4.15;;
32705;SDS011;19094;50.972;3.538;2023-07-13T02:41:21;16.90;;;3.75;;
32705;SDS011;19094;50.972;3.538;2023-07-13T02:43:48;18.33;;;3.50;;
32705;SDS011;19094;50.972;3.538;2023-07-13T02:46:13;15.20;;;3.40;;
32705;SDS011;19094;50.972;3.538;2023-07-13T02:48:39;14.90;;;3.47;;
32705;SDS011;19094;50.972;3.538;2023-07-13T02:51:05;27.67;;;4.90;;
32705;SDS011;19094;50.972;3.538;2023-07-13T02:53:31;17.75;;;3.88;;
32705;SDS011;19094;50.972;3.538;2023-07-13T02:55:57;23.05;;;4.90;;
32705;SDS011;19094;50.972;3.538;2023-07-13T02:58:22;17.00;;;4.07;;
32705;SDS011;19094;50.972;3.538;2023-07-13T03:00:48;16.50;;;4.07;;
32705;SDS011;19094;50.972;3.538;2023-07-13T03:03:15;23.02;;;3.75;;
32705;SDS011;19094;50.972;3.538;2023-07-13T03:05:41;14.73;;;3.45;;
32705;SDS011;19094;50.972;3.538;2023-07-13T03:08:10;13.93;;;3.25;;
32705;SDS011;19094;50.972;3.538;2023-07-13T03:10:36;17.63;;;3.83;;
32705;SDS011;19094;50.972;3.538;2023-07-13T03:13:03;20.90;;;4.40;;
32705;SDS011;19094;50.972;3.538;2023-07-13T03:15:29;16.35;;;4.22;;
32705;SDS011;19094;50.972;3.538;2023-07-13T03:17:54;15.57;;;4.22;;
32705;SDS011;19094;50.972;3.538;2023-07-13T03:20:20;15.32;;;3.55;;
32705;SDS011;19094;50.972;3.538;2023-07-13T03:22:46;18.00;;;3.88;;
32705;SDS011;19094;50.972;3.538;2023-07-13T03:25:12;17.33;;;3.47;;
32705;SDS011;19094;50.972;3.538;2023-07-13T03:27:37;17.33;;;3.90;;
32705;SDS011;19094;50.972;3.538;2023-07-13T03:30:06;17.77;;;3.58;;
32705;SDS011;19094;50.972;3.538;2023-07-13T03:32:32;19.20;;;4.05;;
32705;SDS011;19094;50.972;3.538;2023-07-13T03:34:58;16.70;;;3.40;;
32705;SDS011;19094;50.972;3.538;2023-07-13T03:37:24;14.55;;;3.47;;
32705;SDS011;19094;50.972;3.538;2023-07-13T03:39:50;12.45;;;3.40;;
32705;SDS011;19094;50.972;3.538;2023-07-13T03:42:15;17.00;;;3.58;;
32705;SDS011;19094;50.972;3.538;2023-07-13T03:44:41;20.55;;;3.83;;
32705;SDS011;19094;50.972;3.538;2023-07-13T03:47:11;14.05;;;4.47;;
32705;SDS011;19094;50.972;3.538;2023-07-13T03:49:37;22.25;;;3.88;;
32705;SDS011;19094;50.972;3.538;2023-07-13T03:52:03;16.65;;;3.45;;
32705;SDS011;19094;50.972;3.538;2023-07-13T03:54:28;18.60;;;3.83;;
32705;SDS011;19094;50.972;3.538;2023-07-13T03:56:54;15.63;;;3.30;;
32705;SDS011;19094;50.972;3.538;2023-07-13T03:59:20;18.42;;;3.97;;
32705;SDS011;19094;50.972;3.538;2023-07-13T04:01:46;17.70;;;3.65;;
32705;SDS011;19094;50.972;3.538;2023-07-13T04:04:11;20.05;;;3.70;;
32705;SDS011;19094;50.972;3.538;2023-07-13T04:06:37;16.70;;;3.45;;
32705;SDS011;19094;50.972;3.538;2023-07-13T04:09:03;16.08;;;3.60;;
32705;SDS011;19094;50.972;3.538;2023-07-13T04:11:33;16.38;;;3.70;;
32705;SDS011;19094;50.972;3.538;2023-07-13T04:14:01;19.70;;;4.13;;
32705;SDS011;19094;50.972;3.538;2023-07-13T04:16:27;21.48;;;3.58;;
32705;SDS011;19094;50.972;3.538;2023-07-13T04:18:53;11.77;;;3.63;;
32705;SDS011;19094;50.972;3.538;2023-07-13T04:21:24;22.05;;;4.25;;
32705;SDS011;19094;50.972;3.538;2023-07-13T04:23:50;21.13;;;3.97;;
32705;SDS011;19094;50.972;3.538;2023-07-13T04:26:15;15.63;;;4.13;;
32705;SDS011;19094;50.972;3.538;2023-07-13T04:28:41;26.55;;;3.78;;
32705;SDS011;19094;50.972;3.538;2023-07-13T04:31:07;12.82;;;3.78;;
32705;SDS011;19094;50.972;3.538;2023-07-13T04:33:32;21.90;;;3.97;;
32705;SDS011;19094;50.972;3.538;2023-07-13T04:35:58;13.30;;;3.45;;
32705;SDS011;19094;50.972;3.538;2023-07-13T04:38:28;14.05;;;3.75;;
32705;SDS011;19094;50.972;3.538;2023-07-13T04:40:56;25.10;;;4.35;;
32705;SDS011;19094;50.972;3.538;2023-07-13T04:43:23;19.10;;;4.28;;
32705;SDS011;19094;50.972;3.538;2023-07-13T04:45:50;18.00;;;3.90;;
32705;SDS011;19094;50.972;3.538;2023-07-13T04:48:16;19.08;;;3.97;;
32705;SDS011;19094;50.972;3.538;2023-07-13T04:50:42;19.83;;;4.45;;
32705;SDS011;19094;50.972;3.538;2023-07-13T04:53:08;22.00;;;3.75;;
32705;SDS011;19094;50.972;3.538;2023-07-13T04:55:35;18.23;;;3.53;;
32705;SDS011;19094;50.972;3.538;2023-07-13T04:58:01;21.90;;;4.03;;
32705;SDS011;19094;50.972;3.538;2023-07-13T05:00:28;19.40;;;4.10;;
32705;SDS011;19094;50.972;3.538;2023-07-13T05:02:57;25.35;;;3.75;;
32705;SDS011;19094;50.972;3.538;2023-07-13T05:05:24;23.98;;;3.70;;
32705;SDS011;19094;50.972;3.538;2023-07-13T05:07:51;20.83;;;4.90;;
32705;SDS011;19094;50.972;3.538;2023-07-13T05:10:17;23.45;;;4.35;;
32705;SDS011;19094;50.972;3.538;2023-07-13T05:12:42;20.92;;;4.15;;
32705;SDS011;19094;50.972;3.538;2023-07-13T05:15:09;19.27;;;4.10;;
32705;SDS011;19094;50.972;3.538;2023-07-13T05:17:35;19.67;;;3.63;;
32705;SDS011;19094;50.972;3.538;2023-07-13T05:20:00;22.02;;;3.65;;
32705;SDS011;19094;50.972;3.538;2023-07-13T05:22:26;15.88;;;4.00;;
32705;SDS011;19094;50.972;3.538;2023-07-13T05:24:51;21.95;;;4.07;;
32705;SDS011;19094;50.972;3.538;2023-07-13T05:27:17;25.42;;;4.45;;
32705;SDS011;19094;50.972;3.538;2023-07-13T05:29:43;22.50;;;4.05;;
32705;SDS011;19094;50.972;3.538;2023-07-13T05:32:09;25.58;;;4.47;;
32705;SDS011;19094;50.972;3.538;2023-07-13T05:34:35;19.73;;;4.03;;
32705;SDS011;19094;50.972;3.538;2023-07-13T05:37:00;17.15;;;4.35;;
32705;SDS011;19094;50.972;3.538;2023-07-13T05:39:26;26.20;;;4.35;;
32705;SDS011;19094;50.972;3.538;2023-07-13T05:41:52;14.98;;;4.10;;
32705;SDS011;19094;50.972;3.538;2023-07-13T05:44:18;18.42;;;4.28;;
32705;SDS011;19094;50.972;3.538;2023-07-13T05:46:44;23.38;;;4.03;;
32705;SDS011;19094;50.972;3.538;2023-07-13T05:49:10;27.83;;;3.80;;
32705;SDS011;19094;50.972;3.538;2023-07-13T05:51:35;14.93;;;3.58;;
32705;SDS011;19094;50.972;3.538;2023-07-13T05:54:01;18.38;;;4.70;;
32705;SDS011;19094;50.972;3.538;2023-07-13T05:56:27;22.65;;;5.05;;
32705;SDS011;19094;50.972;3.538;2023-07-13T05:58:53;16.48;;;4.38;;
32705;SDS011;19094;50.972;3.538;2023-07-13T06:01:18;19.05;;;4.70;;
32705;SDS011;19094;50.972;3.538;2023-07-13T06:03:45;25.42;;;4.68;;
32705;SDS011;19094;50.972;3.538;2023-07-13T06:06:12;19.95;;;4.15;;
32705;SDS011;19094;50.972;3.538;2023-07-13T06:08:38;21.15;;;4.50;;
32705;SDS011;19094;50.972;3.538;2023-07-13T06:11:04;13.57;;;3.78;;
32705;SDS011;19094;50.972;3.538;2023-07-13T06:13:36;15.93;;;4.53;;
32705;SDS011;19094;50.972;3.538;2023-07-13T06:16:02;17.40;;;4.60;;
32705;SDS011;19094;50.972;3.538;2023-07-13T06:18:35;19.02;;;5.53;;
32705;SDS011;19094;50.972;3.538;2023-07-13T06:21:18;14.90;;;4.50;;
32705;SDS011;19094;50.972;3.538;2023-07-13T06:23:45;15.48;;;4.45;;
32705;SDS011;19094;50.972;3.538;2023-07-13T06:26:15;22.65;;;4.28;;
32705;SDS011;19094;50.972;3.538;2023-07-13T06:28:42;18.92;;;4.32;;
32705;SDS011;19094;50.972;3.538;2023-07-13T06:31:09;13.48;;;3.70;;
32705;SDS011;19094;50.972;3.538;2023-07-13T06:33:36;22.17;;;4.60;;
32705;SDS011;19094;50.972;3.538;2023-07-13T06:36:03;17.80;;;4.40;;
32705;SDS011;19094;50.972;3.538;2023-07-13T06:38:30;23.35;;;3.97;;
32705;SDS011;19094;50.972;3.538;2023-07-13T06:40:56;23.58;;;4.80;;
32705;SDS011;19094;50.972;3.538;2023-07-13T06:43:21;21.17;;;5.13;;
32705;SDS011;19094;50.972;3.538;2023-07-13T06:45:48;23.15;;;5.72;;
32705;SDS011;19094;50.972;3.538;2023-07-13T06:48:18;16.27;;;4.55;;
32705;SDS011;19094;50.972;3.538;2023-07-13T06:50:45;18.45;;;4.53;;
32705;SDS011;19094;50.972;3.538;2023-07-13T06:53:14;26.00;;;5.18;;
32705;SDS011;19094;50.972;3.538;2023-07-13T06:55:40;21.40;;;4.80;;
32705;SDS011;19094;50.972;3.538;2023-07-13T06:58:08;19.20;;;4.47;;
32705;SDS011;19094;50.972;3.538;2023-07-13T07:00:34;20.38;;;5.30;;
32705;SDS011;19094;50.972;3.538;2023-07-13T07:03:00;14.05;;;3.95;;
32705;SDS011;19094;50.972;3.538;2023-07-13T07:05:25;15.73;;;3.92;;
32705;SDS011;19094;50.972;3.538;2023-07-13T07:07:52;14.38;;;4.55;;
32705;SDS011;19094;50.972;3.538;2023-07-13T07:10:19;22.55;;;4.38;;
32705;SDS011;19094;50.972;3.538;2023-07-13T07:12:45;19.70;;;4.45;;
32705;SDS011;19094;50.972;3.538;2023-07-13T07:15:11;15.02;;;4.43;;
32705;SDS011;19094;50.972;3.538;2023-07-13T07:17:37;26.27;;;5.07;;
32705;SDS011;19094;50.972;3.538;2023-07-13T07:20:03;20.25;;;5.55;;
32705;SDS011;19094;50.972;3.538;2023-07-13T07:22:30;14.50;;;4.15;;
32705;SDS011;19094;50.972;3.538;2023-07-13T07:24:57;18.05;;;4.25;;
32705;SDS011;19094;50.972;3.538;2023-07-13T07:27:23;14.93;;;3.75;;
32705;SDS011;19094;50.972;3.538;2023-07-13T07:29:49;15.73;;;3.72;;
32705;SDS011;19094;50.972;3.538;2023-07-13T07:32:15;15.65;;;3.67;;
32705;SDS011;19094;50.972;3.538;2023-07-13T07:34:41;13.65;;;4.13;;
32705;SDS011;19094;50.972;3.538;2023-07-13T07:37:07;20.95;;;3.38;;
32705;SDS011;19094;50.972;3.538;2023-07-13T07:39:37;19.17;;;3.80;;
32705;SDS011;19094;50.972;3.538;2023-07-13T07:42:03;13.63;;;3.80;;
32705;SDS011;19094;50.972;3.538;2023-07-13T07:44:30;14.68;;;4.43;;
32705;SDS011;19094;50.972;3.538;2023-07-13T07:46:57;16.75;;;3.97;;
32705;SDS011;19094;50.972;3.538;2023-07-13T07:49:22;25.10;;;3.90;;
32705;SDS011;19094;50.972;3.538;2023-07-13T07:51:48;22.13;;;4.30;;
32705;SDS011;19094;50.972;3.538;2023-07-13T07:54:14;29.65;;;5.63;;
32705;SDS011;19094;50.972;3.538;2023-07-13T07:56:40;13.18;;;4.30;;
32705;SDS011;19094;50.972;3.538;2023-07-13T07:59:06;15.35;;;3.92;;
32705;SDS011;19094;50.972;3.538;2023-07-13T08:01:32;20.23;;;4.10;;
32705;SDS011;19094;50.972;3.538;2023-07-13T08:03:58;18.20;;;4.35;;
32705;SDS011;19094;50.972;3.538;2023-07-13T08:06:24;19.60;;;4.53;;
32705;SDS011;19094;50.972;3.538;2023-07-13T08:08:50;17.85;;;4.28;;
32705;SDS011;19094;50.972;3.538;2023-07-13T08:11:16;12.63;;;4.53;;
32705;SDS011;19094;50.972;3.538;2023-07-13T08:13:42;19.50;;;4.18;;
32705;SDS011;19094;50.972;3.538;2023-07-13T08:16:08;13.20;;;3.80;;
32705;SDS011;19094;50.972;3.538;2023-07-13T08:18:34;10.57;;;3.75;;
32705;SDS011;19094;50.972;3.538;2023-07-13T08:21:03;19.48;;;3.42;;
32705;SDS011;19094;50.972;3.538;2023-07-13T08:23:30;11.73;;;3.35;;
32705;SDS011;19094;50.972;3.538;2023-07-13T08:25:55;16.27;;;3.90;;
32705;SDS011;19094;50.972;3.538;2023-07-13T08:28:22;16.30;;;4.03;;
32705;SDS011;19094;50.972;3.538;2023-07-13T08:30:47;18.75;;;4.68;;
32705;SDS011;19094;50.972;3.538;2023-07-13T08:33:23;13.15;;;3.25;;
32705;SDS011;19094;50.972;3.538;2023-07-13T08:35:51;11.20;;;3.25;;
32705;SDS011;19094;50.972;3.538;2023-07-13T08:38:17;11.20;;;3.15;;
32705;SDS011;19094;50.972;3.538;2023-07-13T08:40:44;11.68;;;3.58;;
32705;SDS011;19094;50.972;3.538;2023-07-13T08:43:15;11.65;;;3.78;;
32705;SDS011;19094;50.972;3.538;2023-07-13T08:45:46;14.60;;;3.45;;
32705;SDS011;19094;50.972;3.538;2023-07-13T08:50:49;15.77;;;3.25;;
32705;SDS011;19094;50.972;3.538;2023-07-13T08:53:37;12.45;;;3.10;;
32705;SDS011;19094;50.972;3.538;2023-07-13T08:56:11;8.75;;;2.97;;
32705;SDS011;19094;50.972;3.538;2023-07-13T08:58:44;10.88;;;3.08;;
32705;SDS011;19094;50.972;3.538;2023-07-13T09:12:11;12.25;;;3.17;;
32705;SDS011;19094;50.972;3.538;2023-07-13T09:14:59;13.85;;;3.38;;
32705;SDS011;19094;50.972;3.538;2023-07-13T09:17:27;13.05;;;2.85;;
32705;SDS011;19094;50.972;3.538;2023-07-13T09:20:02;9.68;;;3.05;;
32705;SDS011;19094;50.972;3.538;2023-07-13T09:22:47;9.75;;;3.10;;
32705;SDS011;19094;50.972;3.538;2023-07-13T09:28:22;12.18;;;3.60;;
32705;SDS011;19094;50.972;3.538;2023-07-13T09:31:01;14.60;;;4.05;;
32705;SDS011;19094;50.972;3.538;2023-07-13T09:33:28;14.15;;;3.60;;
32705;SDS011;19094;50.972;3.538;2023-07-13T09:35:56;14.27;;;3.50;;
32705;SDS011;19094;50.972;3.538;2023-07-13T09:38:24;11.60;;;3.00;;
32705;SDS011;19094;50.972;3.538;2023-07-13T09:41:02;13.27;;;3.45;;
32705;SDS011;19094;50.972;3.538;2023-07-13T09:43:36;8.80;;;3.15;;
32705;SDS011;19094;50.972;3.538;2023-07-13T09:46:01;9.75;;;3.00;;
32705;SDS011;19094;50.972;3.538;2023-07-13T09:48:33;11.27;;;3.22;;
32705;SDS011;19094;50.972;3.538;2023-07-13T09:51:13;11.77;;;2.70;;
32705;SDS011;19094;50.972;3.538;2023-07-13T09:53:42;11.38;;;3.00;;
32705;SDS011;19094;50.972;3.538;2023-07-13T09:56:18;15.38;;;3.10;;
32705;SDS011;19094;50.972;3.538;2023-07-13T09:58:45;13.18;;;3.30;;
32705;SDS011;19094;50.972;3.538;2023-07-13T10:01:11;9.65;;;2.35;;
32705;SDS011;19094;50.972;3.538;2023-07-13T10:03:37;12.20;;;2.90;;
32705;SDS011;19094;50.972;3.538;2023-07-13T10:06:16;6.43;;;2.20;;
32705;SDS011;19094;50.972;3.538;2023-07-13T10:08:47;8.27;;;2.70;;
32705;SDS011;19094;50.972;3.538;2023-07-13T10:13:59;10.88;;;2.75;;
32705;SDS011;19094;50.972;3.538;2023-07-13T10:16:35;10.57;;;2.55;;
32705;SDS011;19094;50.972;3.538;2023-07-13T10:19:02;9.52;;;2.67;;
32705;SDS011;19094;50.972;3.538;2023-07-13T10:21:38;8.95;;;2.90;;
32705;SDS011;19094;50.972;3.538;2023-07-13T10:24:12;9.73;;;2.58;;
32705;SDS011;19094;50.972;3.538;2023-07-13T10:26:58;7.20;;;2.40;;
32705;SDS011;19094;50.972;3.538;2023-07-13T10:29:37;10.02;;;2.53;;
32705;SDS011;19094;50.972;3.538;2023-07-13T10:32:15;11.45;;;2.40;;
32705;SDS011;19094;50.972;3.538;2023-07-13T10:34:41;6.82;;;2.35;;
32705;SDS011;19094;50.972;3.538;2023-07-13T10:37:15;7.43;;;1.92;;
32705;SDS011;19094;50.972;3.538;2023-07-13T10:39:48;7.50;;;1.95;;
32705;SDS011;19094;50.972;3.538;2023-07-13T10:42:17;6.72;;;2.53;;
32705;SDS011;19094;50.972;3.538;2023-07-13T10:44:58;10.60;;;2.83;;
32705;SDS011;19094;50.972;3.538;2023-07-13T10:47:24;7.45;;;2.95;;
32705;SDS011;19094;50.972;3.538;2023-07-13T10:49:52;6.97;;;3.30;;
32705;SDS011;19094;50.972;3.538;2023-07-13T10:58:11;7.70;;;2.67;;
32705;SDS011;19094;50.972;3.538;2023-07-13T11:09:00;5.32;;;1.95;;
32705;SDS011;19094;50.972;3.538;2023-07-13T11:11:48;3.30;;;1.65;;
32705;SDS011;19094;50.972;3.538;2023-07-13T11:19:50;5.65;;;2.10;;
32705;SDS011;19094;50.972;3.538;2023-07-13T11:22:21;3.97;;;1.95;;
32705;SDS011;19094;50.972;3.538;2023-07-13T11:24:54;6.40;;;2.20;;
32705;SDS011;19094;50.972;3.538;2023-07-13T11:32:43;6.13;;;3.08;;
32705;SDS011;19094;50.972;3.538;2023-07-13T11:35:13;9.77;;;3.40;;
32705;SDS011;19094;50.972;3.538;2023-07-13T11:37:42;6.67;;;2.73;;
32705;SDS011;19094;50.972;3.538;2023-07-13T11:40:15;9.02;;;2.83;;
32705;SDS011;19094;50.972;3.538;2023-07-13T11:42:41;7.38;;;2.80;;
32705;SDS011;19094;50.972;3.538;2023-07-13T11:45:20;5.70;;;2.45;;
32705;SDS011;19094;50.972;3.538;2023-07-13T11:47:50;5.85;;;2.75;;
32705;SDS011;19094;50.972;3.538;2023-07-13T11:50:19;7.15;;;2.92;;
32705;SDS011;19094;50.972;3.538;2023-07-13T11:52:46;7.05;;;2.95;;
32705;SDS011;19094;50.972;3.538;2023-07-13T11:55:18;9.30;;;2.90;;
32705;SDS011;19094;50.972;3.538;2023-07-13T11:57:56;11.15;;;2.70;;
32705;SDS011;19094;50.972;3.538;2023-07-13T12:00:26;8.95;;;2.63;;
32705;SDS011;19094;50.972;3.538;2023-07-13T12:02:56;5.60;;;2.78;;
32705;SDS011;19094;50.972;3.538;2023-07-13T12:05:24;7.80;;;2.58;;
32705;SDS011;19094;50.972;3.538;2023-07-13T12:07:50;7.35;;;3.08;;
32705;SDS011;19094;50.972;3.538;2023-07-13T12:10:26;9.13;;;2.45;;
32705;SDS011;19094;50.972;3.538;2023-07-13T12:13:01;6.68;;;2.97;;
32705;SDS011;19094;50.972;3.538;2023-07-13T12:15:49;10.02;;;2.67;;
32705;SDS011;19094;50.972;3.538;2023-07-13T12:18:20;9.40;;;3.13;;
32705;SDS011;19094;50.972;3.538;2023-07-13T12:20:48;9.75;;;2.78;;
32705;SDS011;19094;50.972;3.538;2023-07-13T12:23:23;6.93;;;2.38;;
32705;SDS011;19094;50.972;3.538;2023-07-13T12:25:55;5.45;;;2.45;;
32705;SDS011;19094;50.972;3.538;2023-07-13T12:28:28;7.13;;;2.83;;
32705;SDS011;19094;50.972;3.538;2023-07-13T12:31:00;8.63;;;2.03;;
32705;SDS011;19094;50.972;3.538;2023-07-13T12:33:28;7.28;;;2.60;;
32705;SDS011;19094;50.972;3.538;2023-07-13T12:35:55;9.07;;;2.65;;
32705;SDS011;19094;50.972;3.538;2023-07-13T12:38:21;8.20;;;2.28;;
32705;SDS011;19094;50.972;3.538;2023-07-13T12:40:49;10.93;;;2.30;;
32705;SDS011;19094;50.972;3.538;2023-07-13T12:43:16;9.23;;;2.58;;
32705;SDS011;19094;50.972;3.538;2023-07-13T12:48:47;5.97;;;1.98;;
32705;SDS011;19094;50.972;3.538;2023-07-13T12:51:14;6.20;;;2.10;;
32705;SDS011;19094;50.972;3.538;2023-07-13T12:53:41;5.95;;;2.17;;
32705;SDS011;19094;50.972;3.538;2023-07-13T12:56:18;7.97;;;2.08;;
32705;SDS011;19094;50.972;3.538;2023-07-13T12:58:50;5.75;;;1.90;;
32705;SDS011;19094;50.972;3.538;2023-07-13T13:01:22;4.18;;;2.00;;
32705;SDS011;19094;50.972;3.538;2023-07-13T13:03:51;3.05;;;1.40;;
32705;SDS011;19094;50.972;3.538;2023-07-13T13:08:48;10.68;;;1.70;;
32705;SDS011;19094;50.972;3.538;2023-07-13T13:13:44;4.00;;;1.58;;
32705;SDS011;19094;50.972;3.538;2023-07-13T13:16:22;4.15;;;1.85;;
32705;SDS011;19094;50.972;3.538;2023-07-13T13:18:51;3.92;;;1.50;;
32705;SDS011;19094;50.972;3.538;2023-07-13T13:21:19;3.15;;;1.63;;
32705;SDS011;19094;50.972;3.538;2023-07-13T13:23:45;4.43;;;1.65;;
32705;SDS011;19094;50.972;3.538;2023-07-13T13:26:13;4.10;;;1.73;;
32705;SDS011;19094;50.972;3.538;2023-07-13T13:28:43;5.68;;;1.73;;
32705;SDS011;19094;50.972;3.538;2023-07-13T13:31:09;7.78;;;1.48;;
32705;SDS011;19094;50.972;3.538;2023-07-13T13:33:39;4.13;;;1.70;;
32705;SDS011;19094;50.972;3.538;2023-07-13T13:36:17;5.38;;;1.58;;
32705;SDS011;19094;50.972;3.538;2023-07-13T13:38:44;2.58;;;1.40;;
32705;SDS011;19094;50.972;3.538;2023-07-13T13:41:11;3.13;;;1.52;;
32705;SDS011;19094;50.972;3.538;2023-07-13T13:43:38;4.07;;;1.48;;
32705;SDS011;19094;50.972;3.538;2023-07-13T13:46:09;4.25;;;1.55;;
32705;SDS011;19094;50.972;3.538;2023-07-13T13:48:47;5.13;;;1.98;;
32705;SDS011;19094;50.972;3.538;2023-07-13T13:51:15;7.28;;;1.80;;
32705;SDS011;19094;50.972;3.538;2023-07-13T13:53:46;6.85;;;2.13;;
32705;SDS011;19094;50.972;3.538;2023-07-13T13:56:13;3.90;;;1.50;;
32705;SDS011;19094;50.972;3.538;2023-07-13T13:58:39;6.43;;;1.58;;
32705;SDS011;19094;50.972;3.538;2023-07-13T14:01:08;4.32;;;1.58;;
32705;SDS011;19094;50.972;3.538;2023-07-13T14:03:41;6.88;;;1.90;;
32705;SDS011;19094;50.972;3.538;2023-07-13T14:06:10;4.90;;;1.60;;
32705;SDS011;19094;50.972;3.538;2023-07-13T14:08:37;17.63;;;2.35;;
32705;SDS011;19094;50.972;3.538;2023-07-13T14:11:03;2.92;;;1.60;;
32705;SDS011;19094;50.972;3.538;2023-07-13T14:13:35;6.80;;;1.63;;
32705;SDS011;19094;50.972;3.538;2023-07-13T14:16:09;3.42;;;1.75;;
32705;SDS011;19094;50.972;3.538;2023-07-13T14:18:39;6.30;;;1.40;;
32705;SDS011;19094;50.972;3.538;2023-07-13T14:21:11;6.75;;;1.67;;
32705;SDS011;19094;50.972;3.538;2023-07-13T14:23:43;5.05;;;1.98;;
32705;SDS011;19094;50.972;3.538;2023-07-13T14:26:11;6.80;;;1.90;;
32705;SDS011;19094;50.972;3.538;2023-07-13T14:28:43;3.83;;;1.45;;
32705;SDS011;19094;50.972;3.538;2023-07-13T14:31:13;6.47;;;1.42;;
32705;SDS011;19094;50.972;3.538;2023-07-13T14:33:40;5.07;;;1.60;;
32705;SDS011;19094;50.972;3.538;2023-07-13T14:36:16;5.30;;;1.35;;
32705;SDS011;19094;50.972;3.538;2023-07-13T14:38:46;3.67;;;1.60;;
32705;SDS011;19094;50.972;3.538;2023-07-13T14:41:12;4.85;;;1.60;;
32705;SDS011;19094;50.972;3.538;2023-07-13T14:43:37;5.43;;;1.50;;
32705;SDS011;19094;50.972;3.538;2023-07-13T14:46:03;5.18;;;1.80;;
32705;SDS011;19094;50.972;3.538;2023-07-13T14:48:29;7.35;;;2.58;;
32705;SDS011;19094;50.972;3.538;2023-07-13T14:50:56;6.53;;;2.55;;
32705;SDS011;19094;50.972;3.538;2023-07-13T14:53:25;3.35;;;1.63;;
32705;SDS011;19094;50.972;3.538;2023-07-13T14:55:52;5.40;;;1.63;;
32705;SDS011;19094;50.972;3.538;2023-07-13T14:58:18;4.20;;;1.40;;
32705;SDS011;19094;50.972;3.538;2023-07-13T15:00:44;6.20;;;1.50;;
32705;SDS011;19094;50.972;3.538;2023-07-13T15:03:18;3.72;;;1.38;;
32705;SDS011;19094;50.972;3.538;2023-07-13T15:05:49;5.25;;;1.80;;
32705;SDS011;19094;50.972;3.538;2023-07-13T15:08:16;9.75;;;1.60;;
32705;SDS011;19094;50.972;3.538;2023-07-13T15:10:42;4.50;;;1.60;;
32705;SDS011;19094;50.972;3.538;2023-07-13T15:15:44;3.38;;;1.63;;
32705;SDS011;19094;50.972;3.538;2023-07-13T15:18:12;4.07;;;1.70;;
32705;SDS011;19094;50.972;3.538;2023-07-13T15:20:42;8.13;;;2.38;;
32705;SDS011;19094;50.972;3.538;2023-07-13T15:23:10;4.20;;;1.45;;
32705;SDS011;19094;50.972;3.538;2023-07-13T15:25:37;3.63;;;1.98;;
32705;SDS011;19094;50.972;3.538;2023-07-13T15:28:03;5.88;;;1.30;;
32705;SDS011;19094;50.972;3.538;2023-07-13T15:30:29;2.38;;;1.40;;
32705;SDS011;19094;50.972;3.538;2023-07-13T15:33:00;4.95;;;1.70;;
32705;SDS011;19094;50.972;3.538;2023-07-13T15:35:34;3.80;;;1.40;;
32705;SDS011;19094;50.972;3.538;2023-07-13T15:38:00;5.45;;;1.70;;
32705;SDS011;19094;50.972;3.538;2023-07-13T15:40:27;4.72;;;1.45;;
32705;SDS011;19094;50.972;3.538;2023-07-13T15:42:53;5.60;;;1.80;;